createdAt,value
2017-09-17T00:02:34.877Z,8.07
2017-09-17T00:17:34.871Z,8.57
2017-09-17T00:32:34.814Z,8.47
2017-09-17T00:47:34.976Z,8.60
2017-09-17T01:02:35.207Z,7.70
2017-09-17T01:17:35.212Z,7.93
2017-09-17T01:32:35.215Z,8.00
2017-09-17T01:47:35.175Z,8.60
2017-09-17T02:02:34.577Z,8.50
2017-09-17T02:17:34.764Z,8.70
2017-09-17T02:32:34.501Z,8.50
2017-09-17T02:47:34.513Z,8.93
2017-09-17T03:02:34.952Z,8.53
2017-09-17T03:17:35.188Z,8.73
2017-09-17T03:32:34.886Z,8.17
2017-09-17T03:47:34.904Z,9.40
2017-09-17T04:02:35.307Z,7.60
2017-09-17T04:17:35.558Z,8.73
2017-09-17T04:32:35.242Z,8.80
2017-09-17T04:47:35.268Z,7.43
2017-09-17T05:02:34.690Z,9.60
2017-09-17T05:17:34.672Z,15.63
2017-09-17T05:32:34.128Z,10.10
2017-09-17T05:47:34.553Z,9.10
2017-09-17T06:02:35.020Z,10.00
2017-09-17T06:17:34.989Z,9.07
2017-09-17T06:32:34.989Z,10.77
2017-09-17T06:47:37.495Z,10.27
2017-09-17T07:02:35.417Z,10.67
2017-09-17T07:17:35.330Z,10.87
2017-09-17T07:32:35.408Z,11.63
2017-09-17T07:47:35.448Z,12.00
2017-09-17T08:02:34.780Z,10.60
2017-09-17T08:17:34.753Z,10.70
2017-09-17T08:32:34.707Z,10.00
2017-09-17T08:47:36.822Z,17.80
2017-09-17T09:02:34.618Z,9.83
2017-09-17T09:17:37.143Z,9.03
2017-09-17T09:32:34.938Z,9.47
2017-09-17T09:47:34.668Z,9.70
2017-09-17T10:02:35.037Z,11.03
2017-09-17T10:17:34.587Z,8.33
2017-09-17T10:32:34.549Z,8.83
2017-09-17T10:47:34.482Z,7.97
2017-09-17T11:02:34.908Z,6.57
2017-09-17T11:17:34.955Z,4.40
2017-09-17T11:32:36.850Z,3.93
2017-09-17T11:47:36.887Z,4.27
2017-09-17T12:02:35.275Z,4.47
2017-09-17T12:17:35.258Z,4.30
2017-09-17T12:32:35.285Z,4.20
2017-09-17T12:47:35.242Z,4.27
2017-09-17T13:02:34.707Z,4.40
2017-09-17T13:17:34.590Z,3.80
2017-09-17T13:32:34.718Z,3.73
2017-09-17T13:47:34.659Z,3.70
2017-09-17T14:02:36.550Z,3.53
2017-09-17T14:17:34.998Z,4.73
2017-09-17T14:32:35.030Z,4.53
2017-09-17T14:47:34.919Z,4.30
2017-09-17T15:02:34.406Z,3.53
2017-09-17T15:17:34.380Z,3.50
2017-09-17T15:32:34.465Z,3.70
2017-09-17T15:47:34.423Z,3.73
2017-09-17T16:02:34.794Z,3.40
2017-09-17T16:17:34.873Z,4.13
2017-09-17T16:32:34.795Z,4.00
2017-09-17T16:47:36.872Z,5.97
2017-09-17T17:02:35.391Z,10.00
2017-09-17T17:17:35.207Z,6.60
2017-09-17T17:32:35.997Z,6.87
2017-09-17T17:47:35.190Z,6.60
2017-09-17T18:02:34.649Z,4.27
2017-09-17T18:17:34.607Z,5.83
2017-09-17T18:32:34.658Z,12.60
2017-09-17T18:47:34.581Z,4.70
2017-09-17T19:02:37.848Z,4.17
2017-09-17T19:17:35.041Z,4.17
2017-09-17T19:32:35.143Z,5.23
2017-09-17T19:47:35.997Z,4.50
2017-09-17T20:02:34.424Z,3.87
2017-09-17T20:17:34.372Z,4.50
2017-09-17T20:32:34.419Z,8.20
2017-09-17T20:47:34.406Z,10.23
2017-09-17T21:02:34.775Z,10.03
2017-09-17T21:17:34.796Z,10.30
2017-09-17T21:32:34.707Z,9.70
2017-09-17T21:47:36.712Z,10.53
2017-09-17T22:02:35.143Z,9.30
2017-09-17T22:17:35.127Z,8.17
2017-09-17T22:32:35.115Z,7.50
2017-09-17T22:47:35.079Z,6.20
2017-09-17T23:02:34.556Z,6.23
2017-09-17T23:17:36.545Z,5.90
2017-09-17T23:32:36.434Z,6.13
2017-09-17T23:47:34.434Z,6.40
